createdAt,value
2023-02-27T00:01:13.141Z,1.57
2023-02-27T00:03:40.770Z,1.60
2023-02-27T00:06:09.174Z,1.50
2023-02-27T00:08:36.507Z,1.70
2023-02-27T00:11:07.015Z,1.53
2023-02-27T00:13:35.406Z,1.60
2023-02-27T00:16:03.602Z,1.27
2023-02-27T00:18:30.922Z,1.27
2023-02-27T00:21:04.888Z,1.90
2023-02-27T00:23:35.402Z,1.30
2023-02-27T00:26:02.909Z,1.40
2023-02-27T00:28:30.525Z,1.73
2023-02-27T00:31:00.963Z,1.43
2023-02-27T00:33:34.828Z,1.37
2023-02-27T00:36:04.765Z,1.30
2023-02-27T00:38:37.728Z,1.60
2023-02-27T00:41:11.276Z,1.43
2023-02-27T00:43:57.080Z,1.50
2023-02-27T00:46:56.900Z,1.40
2023-02-27T00:49:47.900Z,1.40
2023-02-27T00:52:24.793Z,1.53
2023-02-27T00:54:52.194Z,1.80
2023-02-27T00:57:19.422Z,1.50
2023-02-27T01:00:10.563Z,1.70
2023-02-27T01:03:15.863Z,1.90
2023-02-27T01:05:59.607Z,1.70
2023-02-27T01:08:30.376Z,2.00
2023-02-27T01:11:01.387Z,1.50
2023-02-27T01:16:57.049Z,1.60
2023-02-27T01:19:41.239Z,1.60
2023-02-27T01:22:27.981Z,1.70
2023-02-27T01:24:55.536Z,1.93
2023-02-27T01:27:26.311Z,1.50
2023-02-27T01:29:56.381Z,1.40
2023-02-27T01:32:28.278Z,1.70
2023-02-27T01:35:02.595Z,1.97
2023-02-27T01:37:35.848Z,1.50
2023-02-27T01:40:04.538Z,1.40
2023-02-27T01:42:47.421Z,1.40
2023-02-27T01:45:43.031Z,1.33
2023-02-27T01:48:20.341Z,2.03
2023-02-27T01:51:12.551Z,1.93
2023-02-27T01:54:02.300Z,1.77
2023-02-27T01:57:08.464Z,2.00
2023-02-27T01:59:42.022Z,1.70
2023-02-27T02:02:26.124Z,1.60
2023-02-27T02:04:57.585Z,1.30
2023-02-27T02:07:33.641Z,1.57
2023-02-27T02:10:02.833Z,1.57
2023-02-27T02:12:45.896Z,1.50
2023-02-27T02:15:36.470Z,1.73
2023-02-27T02:18:33.032Z,1.40
2023-02-27T02:21:50.827Z,1.97
2023-02-27T02:24:29.988Z,1.77
2023-02-27T02:27:30.140Z,1.93
2023-02-27T02:30:48.380Z,1.80
2023-02-27T02:33:50.909Z,1.63
2023-02-27T02:37:23.395Z,1.90
2023-02-27T02:40:21.194Z,1.50
2023-02-27T02:43:28.981Z,2.13
2023-02-27T02:46:33.261Z,1.93
2023-02-27T02:49:45.387Z,1.60
2023-02-27T02:52:51.489Z,1.70
2023-02-27T02:55:37.728Z,1.83
2023-02-27T02:58:32.819Z,1.90
2023-02-27T03:01:18.472Z,1.80
2023-02-27T03:03:58.628Z,1.90
2023-02-27T03:06:38.734Z,2.20
2023-02-27T03:09:35.931Z,1.90
2023-02-27T03:12:09.158Z,1.80
2023-02-27T03:15:13.759Z,2.10
2023-02-27T03:17:53.076Z,2.20
2023-02-27T03:20:35.259Z,2.13
2023-02-27T03:23:11.334Z,2.00
2023-02-27T03:25:44.067Z,2.00
2023-02-27T03:28:19.264Z,2.10
2023-02-27T03:31:19.852Z,2.20
2023-02-27T03:34:11.672Z,2.10
2023-02-27T03:36:54.666Z,1.90
2023-02-27T03:39:33.001Z,2.17
2023-02-27T03:42:18.030Z,2.23
2023-02-27T03:45:16.822Z,1.97
2023-02-27T03:47:44.731Z,2.00
2023-02-27T03:50:12.926Z,1.80
2023-02-27T03:52:44.623Z,2.13
2023-02-27T03:55:21.867Z,2.00
2023-02-27T03:57:51.497Z,2.10
2023-02-27T04:00:24.222Z,2.30
2023-02-27T04:02:54.292Z,2.60
2023-02-27T04:05:22.200Z,2.00
2023-02-27T04:07:52.157Z,2.20
2023-02-27T04:10:25.640Z,2.20
2023-02-27T04:13:20.785Z,2.80
2023-02-27T04:16:19.500Z,2.00
2023-02-27T04:19:34.441Z,2.03
2023-02-27T04:22:22.818Z,1.90
2023-02-27T04:25:39.537Z,1.87
2023-02-27T04:28:31.802Z,2.60
2023-02-27T04:31:24.991Z,2.30
2023-02-27T04:34:08.003Z,2.20
2023-02-27T04:37:01.631Z,1.97
2023-02-27T04:39:44.602Z,1.87
2023-02-27T04:42:20.100Z,2.30
2023-02-27T04:44:50.200Z,2.57
2023-02-27T04:47:20.023Z,2.20
2023-02-27T04:50:06.493Z,2.07
2023-02-27T04:52:43.201Z,2.50
2023-02-27T04:55:43.582Z,2.57
2023-02-27T04:58:34.763Z,2.57
2023-02-27T05:01:10.295Z,2.47
2023-02-27T05:03:47.423Z,2.60
2023-02-27T05:06:18.875Z,2.00
2023-02-27T05:09:22.522Z,2.50
2023-02-27T05:12:04.153Z,2.47
2023-02-27T05:14:46.783Z,2.57
2023-02-27T05:17:35.170Z,2.33
2023-02-27T05:20:05.612Z,2.27
2023-02-27T05:22:49.619Z,2.33
2023-02-27T05:25:31.778Z,2.93
2023-02-27T05:28:24.558Z,2.63
2023-02-27T05:31:05.163Z,2.47
2023-02-27T05:33:53.004Z,3.00
2023-02-27T05:36:47.044Z,2.57
2023-02-27T05:39:16.542Z,2.67
2023-02-27T05:41:58.596Z,2.50
2023-02-27T05:44:38.722Z,2.73
2023-02-27T05:47:13.022Z,2.30
2023-02-27T05:49:48.386Z,2.70
2023-02-27T05:52:22.195Z,2.87
2023-02-27T05:55:29.814Z,2.80
2023-02-27T05:58:15.703Z,2.63
2023-02-27T06:00:53.162Z,2.43
2023-02-27T06:03:21.877Z,3.03
2023-02-27T06:05:53.612Z,2.37
2023-02-27T06:08:22.249Z,3.00
2023-02-27T06:10:52.469Z,2.60
2023-02-27T06:13:20.107Z,3.03
2023-02-27T06:15:47.972Z,2.63
2023-02-27T06:18:17.462Z,2.73
2023-02-27T06:20:47.051Z,3.20
2023-02-27T06:23:15.154Z,3.07
2023-02-27T06:25:42.389Z,2.80
2023-02-27T06:28:10.674Z,2.87
2023-02-27T06:30:38.696Z,2.73
2023-02-27T06:33:06.600Z,3.03
2023-02-27T06:35:34.335Z,3.27
2023-02-27T06:38:01.645Z,2.90
2023-02-27T06:40:29.159Z,2.80
2023-02-27T06:42:56.819Z,3.10
2023-02-27T06:45:24.548Z,3.00
2023-02-27T06:47:52.200Z,3.10
2023-02-27T06:50:19.726Z,3.20
2023-02-27T06:52:47.063Z,2.67
2023-02-27T06:55:20.040Z,3.40
2023-02-27T06:57:48.393Z,3.47
2023-02-27T07:00:17.376Z,3.60
2023-02-27T07:02:44.917Z,3.10
2023-02-27T07:05:12.373Z,3.20
2023-02-27T07:07:40.946Z,3.23
2023-02-27T07:10:13.855Z,3.07
2023-02-27T07:12:50.251Z,3.30
2023-02-27T07:15:20.716Z,2.80
2023-02-27T07:17:57.472Z,3.57
2023-02-27T07:20:25.529Z,3.00
2023-02-27T07:23:00.737Z,3.10
2023-02-27T07:31:38.996Z,2.90
2023-02-27T07:34:32.615Z,3.10
2023-02-27T07:37:00.301Z,3.20
2023-02-27T07:39:28.038Z,3.20
2023-02-27T07:41:58.394Z,3.70
2023-02-27T07:44:28.996Z,2.87
2023-02-27T07:46:56.538Z,3.00
2023-02-27T07:49:24.068Z,3.40
2023-02-27T07:51:51.567Z,3.43
2023-02-27T07:54:18.818Z,3.50
2023-02-27T07:56:45.982Z,3.10
2023-02-27T07:59:13.376Z,3.50
2023-02-27T08:01:40.993Z,3.23
2023-02-27T08:04:08.349Z,2.73
2023-02-27T08:06:35.734Z,3.17
2023-02-27T08:09:03.040Z,2.97
2023-02-27T08:11:30.515Z,3.27
2023-02-27T08:14:00.878Z,3.40
2023-02-27T08:16:29.654Z,3.60
2023-02-27T08:18:58.179Z,3.30
2023-02-27T08:21:26.744Z,3.07
2023-02-27T08:23:57.175Z,2.87
2023-02-27T08:26:24.723Z,2.50
2023-02-27T08:28:55.741Z,3.53
2023-02-27T08:31:34.988Z,2.80
2023-02-27T08:34:19.172Z,3.03
2023-02-27T08:36:58.271Z,2.97
2023-02-27T08:40:19.066Z,2.77
2023-02-27T09:01:29.464Z,2.30
2023-02-27T09:16:58.880Z,2.00
2023-02-27T09:19:29.381Z,3.90
2023-02-27T09:21:56.781Z,2.33
2023-02-27T09:24:24.281Z,2.70
2023-02-27T09:26:51.925Z,2.20
2023-02-27T09:29:19.230Z,2.07
2023-02-27T09:31:47.269Z,2.00
2023-02-27T09:34:14.727Z,1.83
2023-02-27T09:36:43.031Z,2.63
2023-02-27T09:39:10.603Z,2.33
2023-02-27T09:42:02.203Z,2.47
2023-02-27T09:44:46.276Z,1.83
2023-02-27T09:47:48.355Z,1.90
2023-02-27T09:50:42.520Z,1.53
2023-02-27T09:53:21.825Z,1.93
2023-02-27T09:55:50.693Z,1.80
2023-02-27T09:58:34.925Z,1.70
2023-02-27T10:01:14.547Z,1.57
2023-02-27T10:04:15.079Z,1.60
2023-02-27T10:07:06.277Z,1.83
2023-02-27T10:09:54.879Z,1.43
2023-02-27T10:12:39.035Z,1.20
2023-02-27T10:15:38.892Z,1.60
2023-02-27T10:18:39.570Z,1.53
2023-02-27T10:21:12.834Z,1.10
2023-02-27T10:23:53.426Z,1.30
2023-02-27T10:26:26.627Z,1.67
2023-02-27T10:28:54.417Z,1.17
2023-02-27T10:31:31.684Z,1.00
2023-02-27T10:34:01.159Z,1.30
2023-02-27T10:36:34.053Z,1.27
2023-02-27T10:39:08.080Z,1.17
2023-02-27T10:41:37.980Z,1.00
2023-02-27T10:44:05.432Z,1.20
2023-02-27T10:46:38.336Z,1.10
2023-02-27T10:49:19.970Z,1.23
2023-02-27T10:52:22.370Z,1.10
2023-02-27T10:54:49.814Z,1.23
2023-02-27T10:57:19.559Z,1.30
2023-02-27T10:59:55.842Z,1.20
2023-02-27T11:02:37.286Z,1.40
2023-02-27T11:05:07.907Z,1.93
2023-02-27T11:07:38.635Z,1.20
2023-02-27T11:10:14.453Z,1.30
2023-02-27T11:12:56.700Z,1.63
2023-02-27T11:15:29.003Z,1.40
2023-02-27T11:18:18.812Z,1.20
2023-02-27T11:20:50.696Z,1.50
2023-02-27T11:23:25.062Z,1.40
2023-02-27T11:26:17.502Z,1.67
2023-02-27T11:28:44.729Z,1.17
2023-02-27T11:31:23.799Z,1.20
2023-02-27T11:33:57.688Z,1.00
2023-02-27T11:36:45.440Z,1.30
2023-02-27T11:39:49.651Z,1.30
2023-02-27T11:42:33.873Z,1.10
2023-02-27T11:45:09.025Z,1.30
2023-02-27T11:47:40.525Z,1.20
2023-02-27T11:50:42.637Z,1.20
2023-02-27T11:53:43.180Z,1.23
2023-02-27T11:56:21.384Z,1.00
2023-02-27T11:59:18.045Z,1.00
2023-02-27T12:02:11.485Z,1.00
2023-02-27T12:05:04.223Z,0.90
2023-02-27T12:07:57.773Z,1.20
2023-02-27T12:11:13.205Z,0.93
2023-02-27T12:13:49.852Z,1.00
2023-02-27T12:17:01.810Z,1.13
2023-02-27T12:19:44.638Z,1.00
2023-02-27T12:22:47.090Z,1.20
2023-02-27T12:25:46.583Z,1.10
2023-02-27T12:28:45.849Z,1.03
2023-02-27T12:31:36.878Z,1.10
2023-02-27T12:34:08.829Z,1.00
2023-02-27T12:36:36.058Z,1.10
2023-02-27T12:39:04.739Z,1.27
2023-02-27T12:42:07.214Z,1.13
2023-02-27T12:44:49.530Z,1.07
2023-02-27T12:47:32.378Z,1.00
2023-02-27T12:50:18.283Z,1.30
2023-02-27T12:53:01.026Z,1.20
2023-02-27T12:55:57.707Z,1.33
2023-02-27T12:59:11.596Z,1.00
2023-02-27T13:02:16.984Z,1.20
2023-02-27T13:05:00.314Z,1.07
2023-02-27T13:08:02.513Z,1.33
2023-02-27T13:10:49.517Z,1.10
2023-02-27T13:13:47.110Z,1.20
2023-02-27T13:16:42.491Z,1.30
2023-02-27T13:19:35.104Z,1.40
2023-02-27T13:22:58.792Z,1.63
2023-02-27T13:25:26.836Z,1.37
2023-02-27T13:28:06.968Z,1.27
2023-02-27T13:30:46.208Z,1.47
2023-02-27T13:33:32.750Z,1.13
2023-02-27T13:36:39.692Z,1.73
2023-02-27T13:39:49.159Z,1.47
2023-02-27T13:42:29.062Z,1.30
2023-02-27T13:45:02.186Z,1.20
2023-02-27T13:47:50.040Z,1.33
2023-02-27T13:50:22.671Z,1.40
2023-02-27T13:52:50.409Z,1.30
2023-02-27T13:55:43.861Z,1.40
2023-02-27T13:58:18.791Z,1.20
2023-02-27T14:00:57.286Z,0.87
2023-02-27T14:03:30.591Z,1.03
2023-02-27T14:06:02.327Z,1.30
2023-02-27T14:08:38.523Z,0.90
2023-02-27T14:11:22.921Z,1.40
2023-02-27T14:13:50.329Z,1.00
2023-02-27T14:16:41.695Z,0.87
2023-02-27T14:19:18.009Z,1.10
2023-02-27T14:22:22.792Z,1.00
2023-02-27T14:25:06.493Z,1.00
2023-02-27T14:27:53.801Z,1.10
2023-02-27T14:30:34.840Z,1.07
2023-02-27T14:33:39.536Z,1.03
2023-02-27T14:36:22.558Z,1.00
2023-02-27T14:38:53.157Z,1.23
2023-02-27T14:41:55.700Z,1.10
2023-02-27T14:44:27.335Z,1.10
2023-02-27T14:46:58.817Z,1.00
2023-02-27T14:49:34.578Z,1.20
2023-02-27T14:52:23.323Z,1.10
2023-02-27T14:54:51.887Z,1.10
2023-02-27T14:57:26.685Z,1.10
2023-02-27T14:59:56.861Z,1.23
2023-02-27T15:02:36.450Z,1.10
2023-02-27T15:05:03.628Z,1.07
2023-02-27T15:07:34.478Z,0.90
2023-02-27T15:10:06.112Z,1.10
2023-02-27T15:12:39.786Z,1.20
2023-02-27T15:15:10.764Z,1.07
2023-02-27T15:17:46.637Z,1.03
2023-02-27T15:20:35.419Z,0.90
2023-02-27T15:23:23.663Z,1.20
2023-02-27T15:25:54.731Z,1.10
2023-02-27T15:28:37.351Z,1.00
2023-02-27T15:31:05.266Z,1.03
2023-02-27T15:33:33.797Z,0.90
2023-02-27T15:36:02.463Z,1.10
2023-02-27T15:38:35.945Z,0.97
2023-02-27T15:41:04.696Z,0.93
2023-02-27T15:43:32.995Z,1.13
2023-02-27T15:46:00.482Z,1.00
2023-02-27T15:48:29.500Z,1.10
2023-02-27T15:51:02.477Z,1.73
2023-02-27T15:53:34.067Z,1.00
2023-02-27T15:56:09.841Z,1.00
2023-02-27T15:59:00.771Z,1.10
2023-02-27T16:01:35.051Z,1.00
2023-02-27T16:04:06.698Z,1.03
2023-02-27T16:06:40.817Z,1.10
2023-02-27T16:09:27.519Z,1.23
2023-02-27T16:12:37.163Z,1.10
2023-02-27T16:15:31.813Z,1.10
2023-02-27T16:18:08.078Z,1.33
2023-02-27T16:20:41.502Z,1.00
2023-02-27T16:23:28.699Z,1.17
2023-02-27T16:26:04.220Z,1.20
2023-02-27T16:28:35.071Z,1.33
2023-02-27T16:31:02.659Z,1.17
2023-02-27T16:33:36.567Z,1.10
2023-02-27T16:36:23.637Z,1.40
2023-02-27T16:38:50.987Z,1.00
2023-02-27T16:41:22.268Z,1.10
2023-02-27T16:43:50.607Z,1.20
2023-02-27T16:46:22.328Z,1.30
2023-02-27T16:48:55.176Z,1.33
2023-02-27T16:51:26.071Z,1.20
2023-02-27T16:53:54.802Z,1.23
2023-02-27T16:56:37.339Z,1.20
2023-02-27T16:59:05.712Z,1.30
2023-02-27T17:01:34.186Z,1.30
2023-02-27T17:04:02.137Z,1.60
2023-02-27T17:06:30.446Z,1.40
2023-02-27T17:08:57.991Z,1.50
2023-02-27T17:11:25.267Z,1.30
2023-02-27T17:13:52.442Z,1.40
2023-02-27T17:16:19.667Z,1.57
2023-02-27T17:18:46.947Z,1.63
2023-02-27T17:21:14.513Z,1.50
2023-02-27T17:23:41.996Z,1.73
2023-02-27T17:26:09.292Z,1.67
2023-02-27T17:28:36.581Z,2.20
2023-02-27T17:31:09.664Z,2.00
2023-02-27T17:33:36.801Z,1.80
2023-02-27T17:36:06.728Z,1.70
2023-02-27T17:38:34.360Z,2.03
2023-02-27T17:41:08.474Z,1.73
2023-02-27T17:43:35.854Z,1.90
2023-02-27T17:46:07.577Z,2.00
2023-02-27T17:48:35.669Z,1.83
2023-02-27T17:51:10.129Z,1.77
2023-02-27T17:53:38.552Z,2.00
2023-02-27T17:56:07.123Z,1.73
2023-02-27T17:58:35.012Z,1.63
2023-02-27T18:01:11.585Z,2.00
2023-02-27T18:03:40.079Z,2.10
2023-02-27T18:06:08.069Z,1.83
2023-02-27T18:08:38.024Z,2.10
2023-02-27T18:11:10.769Z,1.80
2023-02-27T18:13:38.862Z,2.00
2023-02-27T18:16:06.631Z,1.80
2023-02-27T18:18:37.545Z,1.83
2023-02-27T18:21:21.806Z,1.73
2023-02-27T18:23:51.365Z,2.47
2023-02-27T18:26:30.106Z,2.07
2023-02-27T18:29:05.230Z,1.80
2023-02-27T18:31:40.419Z,1.80
2023-02-27T18:34:09.506Z,1.70
2023-02-27T18:36:38.117Z,2.20
2023-02-27T18:39:06.662Z,2.20
2023-02-27T18:41:38.048Z,2.13
2023-02-27T18:44:09.435Z,1.97
2023-02-27T18:46:46.613Z,1.97
2023-02-27T18:49:26.334Z,2.00
2023-02-27T18:51:56.793Z,1.80
2023-02-27T18:54:24.863Z,2.60
2023-02-27T18:56:54.876Z,2.50
2023-02-27T18:59:34.307Z,2.63
2023-02-27T19:09:32.543Z,3.03
2023-02-27T19:12:55.210Z,2.40
2023-02-27T19:22:35.132Z,2.60
2023-02-27T19:25:55.267Z,2.60
2023-02-27T19:29:01.584Z,1.90
2023-02-27T19:31:53.751Z,2.07
2023-02-27T19:38:07.309Z,2.60
2023-02-27T19:41:00.966Z,2.63
2023-02-27T19:44:09.327Z,2.30
2023-02-27T19:46:54.430Z,2.40
2023-02-27T19:49:48.687Z,2.63
2023-02-27T19:52:50.077Z,2.73
2023-02-27T19:55:37.801Z,3.00
2023-02-27T19:58:27.847Z,3.23
2023-02-27T20:04:37.252Z,3.20
2023-02-27T20:07:57.340Z,3.83
2023-02-27T20:11:13.054Z,3.30
2023-02-27T20:13:42.170Z,2.97
2023-02-27T20:16:16.853Z,2.80
2023-02-27T20:18:56.915Z,3.47
2023-02-27T20:21:33.841Z,4.80
2023-02-27T20:24:11.650Z,4.50
2023-02-27T20:26:53.929Z,4.70
2023-02-27T20:29:23.945Z,3.20
2023-02-27T20:31:53.446Z,3.47
2023-02-27T20:34:26.566Z,3.00
2023-02-27T20:36:56.112Z,3.10
2023-02-27T20:39:29.001Z,3.27
2023-02-27T20:41:56.257Z,3.27
2023-02-27T20:44:23.846Z,3.50
2023-02-27T20:46:51.257Z,2.83
2023-02-27T20:49:18.824Z,3.23
2023-02-27T20:51:46.316Z,3.83
2023-02-27T20:54:20.084Z,3.30
2023-02-27T20:56:52.280Z,3.53
2023-02-27T20:59:21.515Z,3.30
2023-02-27T21:01:52.111Z,3.27
2023-02-27T21:04:46.016Z,3.97
2023-02-27T21:07:16.529Z,3.67
2023-02-27T21:09:43.776Z,3.47
2023-02-27T21:12:11.886Z,2.93
2023-02-27T21:14:39.549Z,4.10
2023-02-27T21:17:06.930Z,3.20
2023-02-27T21:19:34.268Z,3.67
2023-02-27T21:22:01.698Z,3.90
2023-02-27T21:24:32.470Z,4.10
2023-02-27T21:26:59.981Z,4.37
2023-02-27T21:29:27.125Z,4.53
2023-02-27T21:31:54.680Z,4.73
2023-02-27T21:34:27.928Z,4.60
2023-02-27T21:36:55.898Z,4.60
2023-02-27T21:39:28.454Z,5.07
2023-02-27T21:41:56.049Z,4.53
2023-02-27T21:44:27.177Z,5.00
2023-02-27T21:46:54.830Z,5.20
2023-02-27T21:49:28.262Z,5.13
2023-02-27T21:51:55.913Z,5.17
2023-02-27T21:54:23.427Z,5.57
2023-02-27T21:56:50.800Z,5.97
2023-02-27T21:59:20.371Z,5.30
2023-02-27T22:01:48.770Z,4.83
2023-02-27T22:04:18.512Z,4.77
2023-02-27T22:06:47.072Z,5.20
2023-02-27T22:09:14.816Z,5.00
2023-02-27T22:11:43.993Z,4.93
2023-02-27T22:14:12.496Z,5.20
2023-02-27T22:16:40.596Z,4.73
2023-02-27T22:19:12.188Z,4.60
2023-02-27T22:21:40.075Z,5.13
2023-02-27T22:24:08.607Z,4.80
2023-02-27T22:26:36.295Z,4.93
2023-02-27T22:29:05.757Z,4.80
2023-02-27T22:31:38.055Z,5.00
2023-02-27T22:34:18.041Z,4.63
2023-02-27T22:36:48.653Z,4.60
2023-02-27T22:39:15.742Z,5.00
2023-02-27T22:41:43.668Z,4.60
2023-02-27T22:44:15.078Z,5.30
2023-02-27T22:46:47.464Z,4.63
2023-02-27T22:49:18.055Z,4.87
2023-02-27T22:51:45.488Z,4.83
2023-02-27T22:54:14.941Z,4.73
2023-02-27T22:56:43.038Z,5.27
2023-02-27T22:59:10.466Z,4.93
2023-02-27T23:01:38.475Z,4.90
2023-02-27T23:04:11.462Z,4.97
2023-02-27T23:06:40.592Z,5.23
2023-02-27T23:09:21.177Z,4.33
2023-02-27T23:11:48.622Z,4.67
2023-02-27T23:14:17.222Z,4.37
2023-02-27T23:16:45.879Z,5.60
2023-02-27T23:19:20.152Z,4.90
2023-02-27T23:21:47.545Z,5.00
2023-02-27T23:24:21.158Z,5.10
2023-02-27T23:26:51.920Z,5.67
2023-02-27T23:29:20.110Z,5.23
2023-02-27T23:31:48.052Z,5.37
2023-02-27T23:34:15.293Z,5.60
2023-02-27T23:36:42.586Z,5.40
2023-02-27T23:39:09.920Z,5.67
2023-02-27T23:41:37.099Z,5.90
2023-02-27T23:44:23.121Z,5.37
2023-02-27T23:46:50.539Z,5.77
2023-02-27T23:49:17.679Z,6.27
2023-02-27T23:51:45.212Z,6.10
2023-02-27T23:54:12.711Z,6.23
2023-02-27T23:56:40.297Z,6.40
2023-02-27T23:59:08.171Z,5.70
